Time;durP1;ratioP1;P1;durP2;ratioP2;P2;SDS_P1;SDS_P2;PMS_P1;PMS_P2;Temp;Humidity;BMP_temperature;BMP_pressure;BME280_temperature;BME280_humidity;BME280_pressure;Samples;Min_cycle;Max_cycle;Signal;HPM_P1;HPM_P2
2023/10/10 00:03:08;;;;;;;10.63;4.90;;;17.10;98.50;;;;;;10403379;28;20600;-79
2023/10/10 00:08:33;;;;;;;12.30;5.70;;;17.10;98.40;;;;;;10405148;28;20201;-78
2023/10/10 00:14:05;;;;;;;11.27;5.67;;;17.10;98.60;;;;;;10401039;28;20242;-79
2023/10/10 00:19:32;;;;;;;10.30;5.33;;;17.10;98.40;;;;;;10417310;28;20285;-79
2023/10/10 00:24:54;;;;;;;10.40;4.90;;;17.00;98.20;;;;;;10414751;28;20226;-78
2023/10/10 00:30:17;;;;;;;13.23;5.10;;;17.00;98.20;;;;;;10413950;28;20206;-78
2023/10/10 00:35:42;;;;;;;7.90;4.53;;;16.90;98.00;;;;;;10400651;28;20297;-78
2023/10/10 00:41:08;;;;;;;6.83;4.37;;;16.90;97.70;;;;;;10409378;28;20641;-78
2023/10/10 00:46:30;;;;;;;12.37;5.90;;;16.90;97.90;;;;;;10422390;28;20223;-78
2023/10/10 00:51:55;;;;;;;8.20;4.93;;;16.90;97.60;;;;;;10413406;28;20213;-78
2023/10/10 00:57:21;;;;;;;6.50;5.20;;;16.80;97.80;;;;;;10399954;28;20202;-78
2023/10/10 01:02:43;;;;;;;6.17;4.70;;;16.80;97.60;;;;;;10395915;28;20229;-81
2023/10/10 01:08:08;;;;;;;18.07;5.40;;;16.80;97.50;;;;;;10395148;28;20259;-80
2023/10/10 01:13:33;;;;;;;7.77;5.20;;;16.70;97.40;;;;;;10413024;28;20225;-78
2023/10/10 01:18:57;;;;;;;8.23;5.50;;;16.70;97.40;;;;;;10402779;28;20322;-75
2023/10/10 01:24:21;;;;;;;6.97;5.07;;;16.70;97.40;;;;;;10391995;28;20229;-78
2023/10/10 01:29:50;;;;;;;9.40;5.80;;;16.60;97.30;;;;;;10396966;28;20221;-78
2023/10/10 01:35:16;;;;;;;8.40;5.20;;;16.60;97.20;;;;;;10410334;28;20798;-79
2023/10/10 01:40:40;;;;;;;9.83;6.30;;;16.50;97.30;;;;;;10396650;28;20199;-78
2023/10/10 01:51:43;;;;;;;9.50;5.60;;;16.50;97.30;;;;;;10408774;28;20628;-78
2023/10/10 01:57:09;;;;;;;10.23;4.70;;;16.40;97.50;;;;;;10403080;28;20288;-78
2023/10/10 02:02:34;;;;;;;6.13;4.60;;;16.40;97.50;;;;;;10397479;28;20211;-81
2023/10/10 02:07:57;;;;;;;10.23;5.30;;;16.40;97.50;;;;;;10414479;28;20237;-81
2023/10/10 02:13:22;;;;;;;8.23;5.60;;;16.30;97.40;;;;;;10391795;28;20255;-79
2023/10/10 02:18:51;;;;;;;8.23;4.90;;;16.30;97.40;;;;;;10393822;28;20213;-78
2023/10/10 02:24:36;;;;;;;8.93;6.10;;;16.20;97.40;;;;;;10409589;28;20261;-79
2023/10/10 02:30:03;;;;;;;6.17;5.10;;;16.20;97.60;;;;;;10424344;28;20356;-81
2023/10/10 02:35:27;;;;;;;8.50;5.67;;;16.20;97.60;;;;;;10416704;28;20217;-77
2023/10/10 02:40:53;;;;;;;9.50;5.50;;;16.20;97.50;;;;;;10384280;28;20205;-78
2023/10/10 02:46:17;;;;;;;10.20;6.90;;;16.10;97.70;;;;;;10408079;28;20234;-78
2023/10/10 02:51:45;;;;;;;10.60;6.53;;;16.10;98.00;;;;;;10388172;28;20205;-81
2023/10/10 03:02:53;;;;;;;10.70;6.50;;;16.00;98.00;;;;;;10405451;28;20591;-78
2023/10/10 03:08:34;;;;;;;7.77;5.53;;;16.00;98.00;;;;;;10387520;28;20673;-78
2023/10/10 03:14:00;;;;;;;13.23;6.97;;;15.90;98.40;;;;;;10392991;28;20308;-78
2023/10/10 03:19:28;;;;;;;11.03;5.67;;;15.90;98.40;;;;;;10423836;28;20207;-81
2023/10/10 03:25:08;;;;;;;9.80;6.33;;;15.80;98.50;;;;;;10400105;28;20222;-81
2023/10/10 03:30:50;;;;;;;9.27;5.37;;;15.80;98.60;;;;;;10405340;28;20379;-78
2023/10/10 03:36:30;;;;;;;10.10;5.57;;;15.70;98.70;;;;;;10414957;28;20353;-78
2023/10/10 05:24:08;;;;;;;8.50;5.70;;;15.30;99.90;;;;;;10400750;28;20642;-79
2023/10/10 05:29:33;;;;;;;9.43;6.00;;;15.30;99.90;;;;;;10429410;28;20193;-77
2023/10/10 05:34:58;;;;;;;9.43;5.70;;;15.30;99.90;;;;;;10423295;28;20281;-78
2023/10/10 05:40:20;;;;;;;11.93;6.60;;;15.30;99.90;;;;;;10410509;28;20203;-79
2023/10/10 05:45:43;;;;;;;14.13;6.60;;;15.20;99.90;;;;;;10415627;28;20822;-79
2023/10/10 05:51:09;;;;;;;10.80;5.50;;;15.20;99.90;;;;;;10413159;28;20202;-79
2023/10/10 05:56:34;;;;;;;14.00;6.43;;;15.30;99.90;;;;;;10440635;28;20297;-79
2023/10/10 06:01:57;;;;;;;10.27;5.73;;;15.30;99.90;;;;;;10414920;28;20199;-79
2023/10/10 06:07:21;;;;;;;13.67;8.30;;;15.20;99.90;;;;;;10413254;28;20222;-79
2023/10/10 06:12:43;;;;;;;12.03;6.90;;;15.20;99.90;;;;;;10389822;28;20272;-79
2023/10/10 06:18:15;;;;;;;13.13;5.57;;;15.20;99.90;;;;;;10416593;28;20209;-79
2023/10/10 06:23:41;;;;;;;8.77;6.30;;;15.30;99.90;;;;;;10416192;28;20226;-79
2023/10/10 06:29:04;;;;;;;10.37;6.90;;;15.30;99.90;;;;;;10418096;28;20217;-79
2023/10/10 06:34:34;;;;;;;17.80;6.17;;;15.40;99.90;;;;;;10414828;28;20230;-79
2023/10/10 06:39:58;;;;;;;10.33;5.50;;;15.40;99.90;;;;;;10415288;28;20285;-79
2023/10/10 06:45:22;;;;;;;10.30;6.50;;;15.50;99.90;;;;;;10417758;28;20727;-79
2023/10/10 06:50:49;;;;;;;12.90;6.53;;;15.50;99.90;;;;;;10418063;28;20726;-79
2023/10/10 06:56:18;;;;;;;12.10;6.20;;;15.60;99.90;;;;;;10427716;28;20212;-79
2023/10/10 07:01:41;;;;;;;13.33;5.87;;;15.60;99.90;;;;;;10427522;28;20209;-79
2023/10/10 07:07:05;;;;;;;10.77;6.20;;;15.70;99.90;;;;;;10441889;28;20226;-79
2023/10/10 07:12:31;;;;;;;14.07;6.53;;;15.70;99.90;;;;;;10429146;28;20300;-79
2023/10/10 07:18:04;;;;;;;12.30;5.67;;;15.70;99.90;;;;;;10398066;28;20194;-80
2023/10/10 07:23:36;;;;;;;14.70;6.10;;;15.80;99.90;;;;;;10439082;28;20221;-77
2023/10/10 07:29:25;;;;;;;12.93;6.90;;;15.90;99.90;;;;;;10440727;28;20253;-79
2023/10/10 07:34:42;;;;;;;15.90;6.70;;;16.00;99.90;;;;;;10445031;28;20213;-79
2023/10/10 07:40:19;;;;;;;9.80;5.67;;;16.10;99.90;;;;;;10427775;28;20202;-79
2023/10/10 07:45:44;;;;;;;10.30;5.87;;;16.30;99.90;;;;;;10441796;28;20222;-79
2023/10/10 07:51:09;;;;;;;8.30;5.40;;;16.40;99.90;;;;;;10444455;28;20200;-78
2023/10/10 07:56:31;;;;;;;14.87;6.67;;;16.50;99.90;;;;;;10453508;28;20734;-78
2023/10/10 08:01:56;;;;;;;11.90;7.07;;;16.70;99.90;;;;;;10431853;28;20198;-79
2023/10/10 08:07:19;;;;;;;9.80;6.27;;;16.80;99.90;;;;;;10424273;28;20676;-79
2023/10/10 08:12:42;;;;;;;14.43;6.77;;;16.90;99.90;;;;;;10416960;28;20233;-80
2023/10/10 08:18:06;;;;;;;17.00;11.10;;;16.90;99.90;;;;;;10399956;28;20742;-79
2023/10/10 08:23:29;;;;;;;15.00;6.87;;;17.00;99.90;;;;;;10433913;28;20223;-79
2023/10/10 08:28:52;;;;;;;16.07;8.80;;;17.10;99.90;;;;;;10411858;28;20242;-79
2023/10/10 08:34:15;;;;;;;11.67;7.13;;;17.20;99.90;;;;;;10436647;28;20225;-78
2023/10/10 08:39:39;;;;;;;12.67;6.63;;;17.30;99.90;;;;;;10417863;28;20202;-79
2023/10/10 08:45:03;;;;;;;13.70;6.60;;;17.40;99.90;;;;;;10412417;28;20237;-80
2023/10/10 08:50:27;;;;;;;10.00;6.03;;;17.50;99.90;;;;;;10397350;28;20205;-79
2023/10/10 08:55:56;;;;;;;15.17;6.83;;;;;;;;;;10438484;28;20614;-79
2023/10/10 09:01:18;;;;;;;12.33;7.27;;;17.70;97.50;;;;;;10418266;28;20237;-79
2023/10/10 09:06:45;;;;;;;14.10;7.23;;;17.70;98.40;;;;;;10422033;28;20219;-79
2023/10/10 09:12:14;;;;;;;14.93;7.43;;;17.80;98.80;;;;;;10426482;28;20217;-79
2023/10/10 09:17:40;;;;;;;15.10;6.47;;;17.90;98.60;;;;;;10412458;28;20222;-79
2023/10/10 09:23:21;;;;;;;12.73;6.40;;;18.00;98.50;;;;;;10417984;28;20218;-80
2023/10/10 09:28:49;;;;;;;12.93;6.30;;;18.10;98.50;;;;;;10404439;28;20308;-80
2023/10/10 09:34:12;;;;;;;10.00;6.13;;;18.20;98.00;;;;;;10430655;28;20222;-79
2023/10/10 09:39:37;;;;;;;11.00;7.10;;;18.40;98.10;;;;;;10418461;28;20261;-79
2023/10/10 09:45:27;;;;;;;13.40;7.10;;;18.50;98.10;;;;;;10434167;28;20312;-80
2023/10/10 09:51:08;;;;;;;15.20;6.40;;;18.70;98.10;;;;;;10416428;28;20210;-79
2023/10/10 09:56:32;;;;;;;16.10;6.20;;;18.70;98.00;;;;;;10417064;28;20217;-79
2023/10/10 10:02:00;;;;;;;10.67;7.60;;;18.80;97.70;;;;;;10418496;28;20202;-79
2023/10/10 10:07:41;;;;;;;18.67;6.90;;;18.80;97.70;;;;;;10417239;28;20324;-79
2023/10/10 10:13:37;;;;;;;11.47;6.10;;;18.80;97.70;;;;;;10424126;28;20310;-79
2023/10/10 10:19:15;;;;;;;15.97;7.00;;;18.90;97.50;;;;;;10416758;28;20663;-80
2023/10/10 10:24:54;;;;;;;14.00;6.40;;;19.00;97.40;;;;;;10406364;28;20222;-80
2023/10/10 10:36:14;;;;;;;14.10;6.30;;;19.10;98.00;;;;;;10374345;28;20590;-80
2023/10/10 10:41:48;;;;;;;9.43;5.90;;;19.10;98.20;;;;;;10415919;28;20222;-80
2023/10/10 10:47:45;;;;;;;11.27;6.43;;;19.20;98.10;;;;;;10411166;28;20222;-80
2023/10/10 10:53:20;;;;;;;9.57;5.40;;;19.30;97.50;;;;;;10414091;28;20231;-80
2023/10/10 10:59:11;;;;;;;13.97;7.13;;;19.40;97.10;;;;;;10420305;28;20202;-79
2023/10/10 11:04:44;;;;;;;15.87;8.13;;;19.50;96.90;;;;;;10411879;28;20299;-79
2023/10/10 11:10:07;;;;;;;11.13;5.00;;;19.60;96.70;;;;;;10403491;28;20213;-79
2023/10/10 11:15:37;;;;;;;10.60;6.63;;;19.70;96.60;;;;;;10437086;28;20222;-79
2023/10/10 11:21:11;;;;;;;11.17;5.80;;;19.80;96.10;;;;;;10392609;28;20226;-78
2023/10/10 11:26:34;;;;;;;9.90;5.97;;;19.90;95.70;;;;;;10407884;28;20230;-79
2023/10/10 11:32:06;;;;;;;11.33;5.40;;;20.00;95.70;;;;;;10420259;28;20252;-80
2023/10/10 11:37:34;;;;;;;18.50;6.40;;;20.10;95.90;;;;;;10414736;28;20198;-80
2023/10/10 11:42:57;;;;;;;8.20;4.90;;;20.20;94.40;;;;;;10420043;28;20234;-80
2023/10/10 11:48:19;;;;;;;12.40;5.80;;;20.30;93.50;;;;;;10415412;28;20218;-80
2023/10/10 11:53:46;;;;;;;8.37;4.97;;;20.40;94.00;;;;;;10417920;28;20222;-80
2023/10/10 11:59:10;;;;;;;13.70;5.57;;;20.40;93.50;;;;;;10422073;28;20195;-80
2023/10/10 12:04:33;;;;;;;8.83;5.77;;;20.40;94.10;;;;;;10421234;28;20218;-80
2023/10/10 12:10:07;;;;;;;9.90;5.60;;;20.40;94.00;;;;;;10406198;28;20210;-80
2023/10/10 12:15:31;;;;;;;13.10;4.90;;;20.40;94.20;;;;;;10450196;28;20687;-80
2023/10/10 12:20:55;;;;;;;17.27;5.27;;;20.40;92.50;;;;;;10425335;28;20199;-82
2023/10/10 12:26:20;;;;;;;8.47;4.73;;;20.60;91.90;;;;;;10420940;28;20333;-81
2023/10/10 12:31:43;;;;;;;11.23;4.70;;;20.70;92.80;;;;;;10420005;28;20226;-80
2023/10/10 12:37:05;;;;;;;12.47;5.30;;;20.70;93.10;;;;;;10414878;28;20291;-80
2023/10/10 12:42:28;;;;;;;12.80;5.00;;;20.70;93.30;;;;;;10417115;28;20250;-80
2023/10/10 12:47:51;;;;;;;7.70;4.40;;;20.70;92.90;;;;;;10413064;28;20228;-80
2023/10/10 12:53:15;;;;;;;13.50;5.67;;;20.80;93.40;;;;;;10420400;28;20707;-80
2023/10/10 12:58:42;;;;;;;9.37;5.10;;;20.80;93.50;;;;;;10418770;28;20201;-80
2023/10/10 13:04:07;;;;;;;7.73;4.40;;;20.70;94.30;;;;;;10403024;28;20226;-80
2023/10/10 13:09:30;;;;;;;13.87;5.37;;;20.70;93.40;;;;;;10420332;28;20226;-80
2023/10/10 13:15:16;;;;;;;8.87;5.00;;;20.80;92.50;;;;;;10420835;28;20225;-80
2023/10/10 13:20:36;;;;;;;12.77;5.30;;;20.90;92.80;;;;;;10418739;28;20195;-80
2023/10/10 13:25:58;;;;;;;6.23;4.30;;;21.00;93.10;;;;;;10412839;28;20215;-80
2023/10/10 13:31:24;;;;;;;14.93;5.00;;;21.00;93.90;;;;;;10425516;28;20204;-80
2023/10/10 13:36:46;;;;;;;10.80;4.70;;;20.90;93.80;;;;;;10418525;28;20214;-80
2023/10/10 13:42:08;;;;;;;15.83;5.47;;;20.90;94.00;;;;;;10418301;28;20203;-80
2023/10/10 13:47:32;;;;;;;14.43;5.80;;;20.90;93.60;;;;;;10408365;28;20210;-80
2023/10/10 13:52:54;;;;;;;10.80;5.77;;;20.90;93.60;;;;;;10416849;28;20239;-80
2023/10/10 13:58:16;;;;;;;10.70;5.07;;;20.90;93.90;;;;;;10416487;28;20198;-79
2023/10/10 14:03:45;;;;;;;16.83;6.70;;;20.80;94.10;;;;;;10414202;28;20246;-80
2023/10/10 14:09:09;;;;;;;9.57;5.23;;;20.80;93.70;;;;;;10440344;28;20698;-79
2023/10/10 14:14:32;;;;;;;8.77;5.70;;;20.80;92.90;;;;;;10424421;28;20226;-80
2023/10/10 14:19:56;;;;;;;7.73;4.57;;;20.80;93.70;;;;;;10425294;28;20213;-80
2023/10/10 14:25:20;;;;;;;11.73;5.67;;;20.80;93.30;;;;;;10414371;28;20218;-80
2023/10/10 14:30:42;;;;;;;8.87;5.03;;;20.70;94.20;;;;;;10406918;28;20222;-80
2023/10/10 14:36:11;;;;;;;8.30;5.57;;;20.60;94.30;;;;;;10420991;28;20594;-77
2023/10/10 14:41:34;;;;;;;13.03;7.10;;;20.50;94.90;;;;;;10393892;28;20214;-77
2023/10/10 14:46:57;;;;;;;8.37;5.60;;;20.40;94.80;;;;;;10423254;28;20276;-78
2023/10/10 14:52:21;;;;;;;7.53;5.60;;;20.40;93.80;;;;;;10411909;28;20214;-77
2023/10/10 14:57:43;;;;;;;9.00;5.40;;;20.30;94.70;;;;;;10421490;28;20200;-77
2023/10/10 15:03:12;;;;;;;10.30;5.80;;;20.20;95.30;;;;;;10419064;28;20225;-77
2023/10/10 15:08:35;;;;;;;12.20;6.57;;;20.20;93.70;;;;;;10423036;28;20346;-78
2023/10/10 15:13:58;;;;;;;9.13;5.53;;;20.20;94.50;;;;;;10393340;28;20226;-76
2023/10/10 15:19:24;;;;;;;8.87;6.67;;;20.10;95.10;;;;;;10421341;28;20187;-77
2023/10/10 15:24:50;;;;;;;9.53;5.70;;;20.00;95.40;;;;;;10418400;28;20589;-79
2023/10/10 15:30:15;;;;;;;9.53;5.23;;;20.00;94.90;;;;;;10430872;28;20253;-80
2023/10/10 15:35:40;;;;;;;12.93;6.27;;;20.00;94.30;;;;;;10433877;28;20214;-80
2023/10/10 15:41:16;;;;;;;9.33;6.03;;;20.10;94.70;;;;;;10421757;28;20210;-79
2023/10/10 15:46:39;;;;;;;12.73;6.50;;;20.10;94.90;;;;;;10419630;28;20230;-80
2023/10/10 15:52:03;;;;;;;8.47;5.37;;;20.20;94.40;;;;;;10416344;28;20226;-79
2023/10/10 15:57:27;;;;;;;9.17;6.00;;;20.20;94.30;;;;;;10417741;28;20203;-80
2023/10/10 16:02:53;;;;;;;13.50;5.57;;;20.20;94.30;;;;;;10417134;28;20215;-78
2023/10/10 16:08:15;;;;;;;11.90;5.13;;;20.20;94.30;;;;;;10434599;28;20335;-80
2023/10/10 16:13:39;;;;;;;7.97;5.20;;;20.20;94.50;;;;;;10430714;28;20221;-79
2023/10/10 16:19:04;;;;;;;11.50;6.13;;;20.10;94.50;;;;;;10425583;28;20182;-78
2023/10/10 16:24:27;;;;;;;11.33;5.70;;;20.00;94.50;;;;;;10420851;28;20694;-80
2023/10/10 16:29:55;;;;;;;10.60;5.67;;;19.90;94.70;;;;;;10423626;28;20210;-79
2023/10/10 16:35:20;;;;;;;11.27;5.50;;;19.80;94.80;;;;;;10431236;28;20218;-79
2023/10/10 16:40:42;;;;;;;10.30;5.40;;;19.60;94.50;;;;;;10420432;28;20281;-79
2023/10/10 16:46:09;;;;;;;14.80;7.37;;;19.50;94.90;;;;;;10429645;28;20222;-79
2023/10/10 16:51:32;;;;;;;12.57;7.40;;;19.40;95.00;;;;;;10415792;28;20202;-79
2023/10/10 16:56:57;;;;;;;14.83;8.50;;;19.30;94.80;;;;;;10418142;28;20222;-80
2023/10/10 17:02:21;;;;;;;14.70;8.90;;;19.20;94.60;;;;;;10413843;28;20715;-79
2023/10/10 17:07:43;;;;;;;15.73;6.60;;;19.10;94.50;;;;;;10441252;28;20225;-80
2023/10/10 17:13:05;;;;;;;15.50;8.60;;;19.10;94.30;;;;;;10428855;28;20718;-79
2023/10/10 17:18:30;;;;;;;12.50;8.20;;;19.00;94.10;;;;;;10426033;28;20198;-81
2023/10/10 17:23:55;;;;;;;11.70;7.30;;;19.00;94.10;;;;;;10418538;28;20439;-79
2023/10/10 17:29:17;;;;;;;15.00;9.10;;;18.90;94.00;;;;;;10432707;28;20211;-80
2023/10/10 17:34:42;;;;;;;21.40;10.73;;;18.80;93.80;;;;;;10414413;28;20222;-79
2023/10/10 17:40:05;;;;;;;19.47;10.33;;;18.70;94.00;;;;;;10413660;28;20198;-78
2023/10/10 17:45:28;;;;;;;15.87;8.77;;;18.60;93.80;;;;;;10411236;28;20307;-78
2023/10/10 17:50:51;;;;;;;20.80;11.40;;;18.50;93.70;;;;;;10421928;28;20238;-79
2023/10/10 17:56:13;;;;;;;23.60;11.70;;;18.50;93.80;;;;;;10414022;28;20227;-80
2023/10/10 18:01:37;;;;;;;35.63;19.10;;;18.40;93.80;;;;;;10414828;28;20715;-79
2023/10/10 18:07:00;;;;;;;23.80;10.60;;;18.30;93.70;;;;;;10437456;28;20222;-80
2023/10/10 18:12:23;;;;;;;25.03;14.10;;;18.30;93.70;;;;;;10401356;28;20969;-80
2023/10/10 18:17:46;;;;;;;26.23;14.70;;;18.30;93.80;;;;;;10444920;28;20194;-80
2023/10/10 18:23:10;;;;;;;19.70;11.70;;;18.20;93.80;;;;;;10415295;28;20623;-80
2023/10/10 18:28:34;;;;;;;19.93;10.60;;;18.20;93.80;;;;;;10417270;28;20237;-80
2023/10/10 18:33:56;;;;;;;13.53;6.67;;;18.10;93.90;;;;;;10420885;28;20222;-80
2023/10/10 18:39:19;;;;;;;17.60;10.03;;;18.10;94.20;;;;;;10416517;28;20198;-80
2023/10/10 18:44:42;;;;;;;15.93;8.80;;;18.00;94.40;;;;;;10393722;28;20950;-80
2023/10/10 18:50:05;;;;;;;11.30;7.60;;;18.00;94.50;;;;;;10412519;28;20293;-80
2023/10/10 18:55:29;;;;;;;12.80;7.10;;;17.90;94.60;;;;;;10408395;28;20242;-80
2023/10/10 19:00:54;;;;;;;14.53;7.17;;;17.80;94.50;;;;;;10407036;28;20218;-80
2023/10/10 19:06:18;;;;;;;8.93;6.53;;;17.70;94.50;;;;;;10448861;22;20237;-81
2023/10/10 19:11:43;;;;;;;18.07;6.97;;;17.70;94.60;;;;;;10468028;28;20252;-78
2023/10/10 19:17:06;;;;;;;10.17;5.97;;;17.60;94.70;;;;;;10494715;28;20231;-79
2023/10/10 19:22:30;;;;;;;16.23;7.77;;;17.60;94.70;;;;;;10516486;28;20265;-78
2023/10/10 19:27:55;;;;;;;11.97;6.43;;;17.50;94.70;;;;;;10493373;28;20221;-81
2023/10/10 19:33:17;;;;;;;9.73;6.40;;;17.50;94.80;;;;;;10480836;28;20589;-78
2023/10/10 19:38:40;;;;;;;9.53;6.40;;;17.40;95.00;;;;;;10511070;28;20209;-78
2023/10/10 19:44:06;;;;;;;10.43;6.57;;;17.40;95.00;;;;;;10497215;28;20204;-78
2023/10/10 19:49:34;;;;;;;15.97;6.60;;;17.40;95.00;;;;;;10477088;28;20225;-77
2023/10/10 19:54:56;;;;;;;15.00;6.10;;;17.30;95.00;;;;;;10480015;28;20559;-77
2023/10/10 20:00:20;;;;;;;13.93;8.37;;;17.30;94.80;;;;;;10523752;28;20233;-78
2023/10/10 20:05:43;;;;;;;13.77;7.23;;;17.30;95.30;;;;;;10516069;28;20221;-78
2023/10/10 20:11:05;;;;;;;9.57;6.30;;;17.20;95.30;;;;;;10485492;28;20455;-77
2023/10/10 20:16:29;;;;;;;12.13;6.80;;;17.20;95.30;;;;;;10497361;28;20382;-78
2023/10/10 20:21:51;;;;;;;14.10;6.77;;;17.10;95.50;;;;;;10492529;28;20238;-78
2023/10/10 20:27:16;;;;;;;12.27;5.70;;;17.10;95.40;;;;;;10502817;28;20227;-78
2023/10/10 20:32:39;;;;;;;12.73;6.20;;;17.10;95.50;;;;;;10523764;28;20189;-77
2023/10/10 20:38:05;;;;;;;10.60;6.33;;;17.00;95.40;;;;;;10513792;28;20704;-77
2023/10/10 20:43:28;;;;;;;10.37;6.57;;;17.00;95.60;;;;;;10489835;28;20231;-77
2023/10/10 20:48:56;;;;;;;11.43;6.43;;;16.90;95.80;;;;;;10489686;28;20229;-78
2023/10/10 20:54:18;;;;;;;22.10;7.13;;;16.90;95.90;;;;;;10471967;28;20205;-79
2023/10/10 20:59:42;;;;;;;12.63;5.77;;;16.90;95.90;;;;;;10524980;28;20216;-79
2023/10/10 21:05:07;;;;;;;10.67;6.07;;;16.90;96.10;;;;;;10529945;28;20307;-80
2023/10/10 21:10:30;;;;;;;12.10;6.27;;;16.90;96.10;;;;;;10483585;28;20267;-79
2023/10/10 21:15:52;;;;;;;14.03;7.00;;;16.80;96.00;;;;;;10483243;28;20787;-79
2023/10/10 21:21:16;;;;;;;19.53;7.40;;;16.80;96.10;;;;;;10484940;28;20388;-80
2023/10/10 21:26:38;;;;;;;11.83;6.60;;;16.80;96.40;;;;;;10489354;28;20213;-80
2023/10/10 21:32:01;;;;;;;11.23;6.90;;;16.70;96.40;;;;;;10464739;28;20332;-79
2023/10/10 21:37:25;;;;;;;11.10;6.80;;;16.70;96.30;;;;;;10489636;28;20236;-78
2023/10/10 21:42:48;;;;;;;11.00;6.33;;;16.70;96.20;;;;;;10494470;28;20204;-79
2023/10/10 21:48:11;;;;;;;14.37;6.13;;;16.60;96.30;;;;;;10502076;28;20221;-79
2023/10/10 21:53:34;;;;;;;9.40;6.43;;;16.60;96.50;;;;;;10492057;28;20619;-80
2023/10/10 21:58:57;;;;;;;10.87;6.37;;;16.60;96.70;;;;;;10482023;28;20205;-80
2023/10/10 22:04:19;;;;;;;13.00;6.20;;;16.50;96.60;;;;;;10497621;28;20207;-80
2023/10/10 22:09:43;;;;;;;6.90;5.30;;;16.50;96.60;;;;;;10494333;28;20217;-80
2023/10/10 22:15:08;;;;;;;8.27;5.77;;;16.50;96.50;;;;;;10513724;28;20193;-79
2023/10/10 22:20:33;;;;;;;8.90;5.90;;;16.50;96.20;;;;;;10487350;28;20749;-80
2023/10/10 22:26:02;;;;;;;10.00;6.23;;;16.40;96.20;;;;;;10488382;28;20358;-80
2023/10/10 22:31:24;;;;;;;9.73;7.20;;;16.40;96.00;;;;;;10486594;28;20219;-79
2023/10/10 22:36:47;;;;;;;7.83;5.50;;;16.40;96.00;;;;;;10498169;28;20223;-80
2023/10/10 22:42:13;;;;;;;8.90;5.73;;;16.30;95.80;;;;;;10485316;28;20207;-78
2023/10/10 22:47:35;;;;;;;9.70;5.43;;;16.30;95.90;;;;;;10480250;28;20235;-79
2023/10/10 22:53:01;;;;;;;7.83;6.20;;;16.30;95.80;;;;;;10497363;28;20212;-79
2023/10/10 22:58:27;;;;;;;8.57;5.57;;;16.20;95.70;;;;;;10491875;28;20237;-79
2023/10/10 23:03:50;;;;;;;10.30;5.80;;;16.20;95.80;;;;;;10493060;28;20193;-79
2023/10/10 23:09:15;;;;;;;10.43;6.33;;;16.20;95.90;;;;;;10503721;28;20220;-79
2023/10/10 23:14:38;;;;;;;7.17;5.10;;;16.10;95.80;;;;;;10497453;28;20205;-79
2023/10/10 23:20:07;;;;;;;10.93;6.73;;;16.10;95.80;;;;;;10493242;28;20209;-79
2023/10/10 23:25:31;;;;;;;8.00;5.70;;;16.00;95.80;;;;;;10479546;28;20201;-79
2023/10/10 23:30:57;;;;;;;11.90;6.17;;;16.00;95.90;;;;;;10502016;28;20760;-79
2023/10/10 23:36:19;;;;;;;8.63;5.50;;;16.00;95.90;;;;;;10505551;28;20253;-79
2023/10/10 23:41:42;;;;;;;9.77;7.10;;;16.00;95.80;;;;;;10484781;28;20193;-79
2023/10/10 23:47:06;;;;;;;8.70;5.63;;;15.90;95.70;;;;;;10482259;28;20246;-79
2023/10/10 23:52:32;;;;;;;8.80;6.23;;;16.00;95.60;;;;;;10512580;28;20215;-79
2023/10/10 23:57:54;;;;;;;14.00;7.70;;;15.90;95.60;;;;;;10503828;28;20237;-79
